Time;durP1;ratioP1;P1;durP2;ratioP2;P2;SDS_P1;SDS_P2;PMS_P1;PMS_P2;Temp;Humidity;BMP_temperature;BMP_pressure;BME280_temperature;BME280_humidity;BME280_pressure;Samples;Min_cycle;Max_cycle;Signal;HPM_P1;HPM_P2
2022/11/13 00:01:59;;;;;;;37.67;19.40;;;13.10;99.90;;;;;;5090348;28;20073;-45
2022/11/13 00:04:24;;;;;;;48.47;21.05;;;13.10;99.90;;;;;;5079338;28;20020;-42
2022/11/13 00:06:50;;;;;;;40.00;20.90;;;13.10;99.90;;;;;;5072520;28;20089;-43
2022/11/13 00:09:15;;;;;;;40.92;20.80;;;13.10;99.90;;;;;;5087681;28;20382;-42
2022/11/13 00:11:41;;;;;;;42.75;21.00;;;13.10;99.90;;;;;;5090333;28;20020;-44
2022/11/13 00:14:07;;;;;;;36.22;20.08;;;13.00;99.90;;;;;;5090078;28;20066;-42
2022/11/13 00:16:33;;;;;;;43.25;21.13;;;13.00;99.90;;;;;;5089814;28;20028;-45
2022/11/13 00:18:58;;;;;;;41.53;20.33;;;13.00;99.90;;;;;;5089292;28;20073;-47
2022/11/13 00:21:26;;;;;;;45.30;21.83;;;12.90;99.90;;;;;;5089435;28;20450;-42
2022/11/13 00:23:54;;;;;;;41.13;20.40;;;13.00;99.90;;;;;;5089687;28;20046;-42
2022/11/13 00:26:26;;;;;;;39.40;19.70;;;13.00;99.90;;;;;;5090105;28;20016;-44
2022/11/13 00:28:57;;;;;;;38.78;18.42;;;13.00;99.90;;;;;;5093418;28;20467;-53
2022/11/13 00:31:23;;;;;;;41.53;20.38;;;13.00;99.90;;;;;;5112731;28;20036;-49
2022/11/13 00:33:49;;;;;;;36.15;18.90;;;12.90;99.90;;;;;;5115037;28;20023;-44
2022/11/13 00:36:19;;;;;;;34.55;19.27;;;12.90;99.90;;;;;;5114761;28;20023;-46
2022/11/13 00:38:45;;;;;;;35.47;19.30;;;13.00;99.90;;;;;;5115058;27;20024;-53
2022/11/13 00:41:11;;;;;;;42.38;20.35;;;13.00;99.90;;;;;;5114691;28;20396;-52
2022/11/13 00:43:38;;;;;;;37.92;19.73;;;12.90;99.90;;;;;;5114777;28;20020;-48
2022/11/13 00:46:05;;;;;;;40.40;19.83;;;12.90;99.90;;;;;;5094706;28;20035;-46
2022/11/13 00:48:31;;;;;;;41.40;19.55;;;12.90;99.90;;;;;;5090970;28;20024;-51
2022/11/13 00:50:57;;;;;;;36.88;19.40;;;12.90;99.90;;;;;;5087514;28;20370;-43
2022/11/13 00:53:22;;;;;;;44.10;19.65;;;12.90;99.90;;;;;;5086028;28;20025;-47
2022/11/13 00:55:48;;;;;;;49.00;19.92;;;12.90;99.90;;;;;;5093796;28;20473;-49
2022/11/13 00:58:14;;;;;;;43.53;19.75;;;12.80;99.90;;;;;;5093944;28;20016;-50
2022/11/13 01:00:42;;;;;;;43.28;19.77;;;12.80;99.90;;;;;;5093823;28;20017;-53
2022/11/13 01:03:08;;;;;;;45.38;22.20;;;12.80;99.90;;;;;;5093924;28;20024;-52
2022/11/13 01:05:39;;;;;;;41.72;20.15;;;12.80;99.90;;;;;;5093775;28;20024;-53
2022/11/13 01:08:05;;;;;;;40.88;20.05;;;12.90;99.90;;;;;;5085561;28;20110;-43
2022/11/13 01:10:32;;;;;;;45.22;20.88;;;12.80;99.90;;;;;;5093019;28;20096;-49
2022/11/13 01:12:57;;;;;;;48.17;20.50;;;12.80;99.90;;;;;;5093660;28;20490;-49
2022/11/13 01:15:23;;;;;;;46.85;20.48;;;12.90;99.90;;;;;;5093381;28;20058;-53
2022/11/13 01:17:50;;;;;;;58.88;21.88;;;12.80;99.90;;;;;;5093615;28;20025;-52
2022/11/13 01:20:16;;;;;;;39.67;18.70;;;12.80;99.90;;;;;;5091838;28;20040;-49
2022/11/13 01:22:42;;;;;;;47.42;20.35;;;12.80;99.90;;;;;;5084041;28;20043;-48
2022/11/13 01:25:08;;;;;;;45.10;19.70;;;12.80;99.90;;;;;;5092578;28;20016;-45
2022/11/13 01:27:36;;;;;;;44.50;20.48;;;12.80;99.90;;;;;;5085951;28;20077;-46
2022/11/13 01:30:03;;;;;;;46.92;20.90;;;12.80;99.90;;;;;;5093250;28;20085;-43
2022/11/13 01:32:28;;;;;;;47.70;21.95;;;12.80;99.90;;;;;;5080899;28;20027;-45
2022/11/13 01:34:54;;;;;;;50.58;21.25;;;12.80;99.90;;;;;;5093408;28;20449;-48
2022/11/13 01:37:19;;;;;;;52.70;21.25;;;12.80;99.90;;;;;;5080099;28;20016;-46
2022/11/13 01:39:45;;;;;;;47.25;21.92;;;12.80;99.90;;;;;;5092576;28;20059;-43
2022/11/13 01:42:11;;;;;;;46.90;20.55;;;12.80;99.90;;;;;;5092749;28;20032;-49
2022/11/13 01:44:50;;;;;;;49.97;21.10;;;12.80;99.90;;;;;;5093269;28;20028;-50
2022/11/13 01:47:16;;;;;;;46.10;20.65;;;12.80;99.90;;;;;;5092021;28;20081;-47
2022/11/13 01:49:44;;;;;;;48.58;21.17;;;12.80;99.90;;;;;;5093088;28;20481;-45
2022/11/13 01:52:14;;;;;;;53.20;21.48;;;12.80;99.90;;;;;;5091039;28;20016;-48
2022/11/13 01:54:46;;;;;;;50.75;22.13;;;12.80;99.90;;;;;;5089970;28;20400;-49
2022/11/13 01:57:13;;;;;;;55.30;22.20;;;12.80;99.90;;;;;;5089720;28;20028;-56
2022/11/13 01:59:42;;;;;;;51.13;22.10;;;12.80;99.90;;;;;;5092321;28;20016;-51
2022/11/13 02:02:08;;;;;;;50.08;20.17;;;12.80;99.90;;;;;;5089661;28;20035;-47
2022/11/13 02:04:34;;;;;;;56.97;22.60;;;12.80;99.90;;;;;;5092810;28;20020;-48
2022/11/13 02:07:09;;;;;;;52.42;22.65;;;12.80;99.90;;;;;;5092741;28;20473;-54
2022/11/13 02:09:41;;;;;;;57.78;22.73;;;12.80;99.90;;;;;;5092544;28;20031;-59
2022/11/13 02:12:10;;;;;;;49.03;20.55;;;12.80;99.90;;;;;;5092569;28;20107;-47
2022/11/13 02:14:39;;;;;;;55.13;22.67;;;12.80;99.90;;;;;;5092802;28;20081;-44
2022/11/13 02:17:08;;;;;;;58.88;22.88;;;12.80;99.90;;;;;;5092960;28;20024;-55
2022/11/13 02:19:38;;;;;;;52.83;20.83;;;12.80;99.90;;;;;;5092927;28;20032;-51
2022/11/13 02:22:19;;;;;;;51.63;21.30;;;12.90;99.90;;;;;;5092281;28;20489;-43
2022/11/13 02:24:46;;;;;;;57.13;22.05;;;12.80;99.90;;;;;;5085946;28;20564;-49
2022/11/13 02:27:50;;;;;;;51.55;22.40;;;12.90;99.90;;;;;;5091750;28;20024;-48
2022/11/13 02:30:25;;;;;;;52.75;20.67;;;12.90;99.90;;;;;;5049466;28;20045;-44
2022/11/13 02:32:53;;;;;;;58.13;22.30;;;12.90;99.90;;;;;;5042450;28;20025;-47
2022/11/13 02:35:36;;;;;;;55.28;22.25;;;12.90;99.90;;;;;;5069609;28;20378;-43
2022/11/13 02:38:04;;;;;;;53.45;22.02;;;12.90;99.90;;;;;;5092055;28;20031;-48
2022/11/13 02:40:31;;;;;;;59.47;22.42;;;12.90;99.90;;;;;;5096299;28;20103;-52
2022/11/13 02:42:57;;;;;;;52.45;21.70;;;12.90;99.90;;;;;;5112446;28;20023;-52
2022/11/13 02:45:23;;;;;;;57.85;23.40;;;12.90;99.90;;;;;;5112076;28;20032;-48
2022/11/13 02:47:49;;;;;;;48.92;20.65;;;12.90;99.90;;;;;;5112138;28;20023;-48
2022/11/13 02:50:15;;;;;;;52.90;21.95;;;12.90;99.90;;;;;;5112138;28;20419;-46
2022/11/13 02:52:40;;;;;;;53.85;22.55;;;12.90;99.90;;;;;;5111532;28;20106;-45
2022/11/13 02:55:06;;;;;;;46.22;21.25;;;13.00;99.90;;;;;;5097756;28;20107;-45
2022/11/13 02:57:32;;;;;;;51.80;21.80;;;13.00;99.90;;;;;;5112117;27;20030;-50
2022/11/13 02:59:58;;;;;;;55.08;21.88;;;13.00;99.90;;;;;;5112001;28;20035;-46
2022/11/13 03:02:23;;;;;;;46.58;21.25;;;13.00;99.90;;;;;;5111881;28;20020;-54
2022/11/13 03:04:49;;;;;;;51.05;21.42;;;13.00;99.90;;;;;;5112068;28;20114;-52
2022/11/13 03:07:15;;;;;;;47.05;22.25;;;13.00;99.90;;;;;;5112081;28;20887;-43
2022/11/13 03:09:41;;;;;;;50.97;21.52;;;13.00;99.90;;;;;;5111862;28;20027;-51
2022/11/13 03:12:08;;;;;;;49.15;21.73;;;13.00;99.90;;;;;;5111665;28;20070;-44
2022/11/13 03:14:34;;;;;;;54.78;22.08;;;13.10;99.90;;;;;;5111689;28;20065;-54
2022/11/13 03:16:59;;;;;;;45.38;20.52;;;13.10;99.90;;;;;;5112112;28;20097;-52
2022/11/13 03:19:25;;;;;;;44.70;19.95;;;13.10;99.90;;;;;;5111910;28;20472;-42
2022/11/13 03:21:51;;;;;;;49.22;20.60;;;13.10;99.90;;;;;;5111624;28;20491;-45
2022/11/13 03:24:16;;;;;;;43.55;19.88;;;13.10;99.90;;;;;;5111477;28;20035;-45
2022/11/13 03:26:42;;;;;;;46.53;21.60;;;13.10;99.90;;;;;;5092475;28;20024;-44
2022/11/13 03:29:08;;;;;;;43.00;19.83;;;13.10;99.90;;;;;;5082696;28;20044;-46
2022/11/13 03:31:33;;;;;;;42.47;20.25;;;13.10;99.90;;;;;;5088328;28;20369;-46
2022/11/13 03:33:59;;;;;;;45.75;20.45;;;13.10;99.90;;;;;;5096901;28;20111;-42
2022/11/13 03:36:25;;;;;;;48.17;21.23;;;13.10;99.90;;;;;;5110223;28;20026;-46
2022/11/13 03:38:51;;;;;;;51.10;21.92;;;13.10;99.90;;;;;;5111348;28;20034;-44
2022/11/13 03:41:16;;;;;;;47.13;20.17;;;13.10;99.90;;;;;;5110965;28;20038;-42
2022/11/13 03:43:42;;;;;;;43.97;21.08;;;13.10;99.90;;;;;;5111280;28;20034;-43
2022/11/13 03:46:08;;;;;;;50.50;20.98;;;13.10;99.90;;;;;;5111170;28;20066;-43
2022/11/13 03:48:34;;;;;;;51.30;21.58;;;13.10;99.90;;;;;;5111187;28;20020;-44
2022/11/13 03:50:59;;;;;;;45.08;20.58;;;13.00;99.90;;;;;;5111012;28;20119;-43
2022/11/13 03:53:25;;;;;;;48.08;21.17;;;13.10;99.90;;;;;;5111150;28;20061;-43
2022/11/13 03:55:51;;;;;;;46.17;20.55;;;13.10;99.90;;;;;;5102913;28;20085;-51
2022/11/13 03:58:17;;;;;;;50.28;20.58;;;13.00;99.90;;;;;;5106696;28;20038;-43
2022/11/13 04:00:44;;;;;;;47.65;20.80;;;13.00;99.90;;;;;;5111033;28;20023;-46
2022/11/13 04:03:10;;;;;;;48.83;21.10;;;13.00;99.90;;;;;;5110571;28;20452;-50
2022/11/13 04:05:36;;;;;;;48.03;20.83;;;13.00;99.90;;;;;;5082835;28;20537;-56
2022/11/13 04:08:02;;;;;;;47.72;21.08;;;12.90;99.90;;;;;;5111135;28;20035;-46
2022/11/13 04:10:28;;;;;;;50.30;21.55;;;12.90;99.90;;;;;;5110568;28;20039;-52
2022/11/13 04:12:54;;;;;;;50.08;20.70;;;12.90;99.90;;;;;;5110829;28;20019;-47
2022/11/13 04:15:19;;;;;;;45.22;19.95;;;12.90;99.90;;;;;;5109624;28;20032;-50
2022/11/13 04:17:45;;;;;;;45.20;20.05;;;12.90;99.90;;;;;;5110920;28;20019;-46
2022/11/13 04:20:11;;;;;;;48.45;19.98;;;12.90;99.90;;;;;;5110695;28;20035;-55
2022/11/13 04:22:37;;;;;;;46.40;19.83;;;12.90;99.90;;;;;;5082485;28;20031;-50
2022/11/13 04:25:03;;;;;;;49.60;20.33;;;12.90;99.90;;;;;;5107135;28;20557;-54
2022/11/13 04:27:29;;;;;;;51.28;21.17;;;12.90;99.90;;;;;;5087013;28;20105;-53
2022/11/13 04:29:54;;;;;;;45.00;20.38;;;12.90;99.90;;;;;;5084709;28;20072;-53
2022/11/13 04:32:20;;;;;;;46.88;19.83;;;12.80;99.90;;;;;;5090202;28;20479;-51
2022/11/13 04:34:45;;;;;;;41.75;18.52;;;12.80;99.90;;;;;;5090401;28;20063;-52
2022/11/13 04:37:11;;;;;;;46.42;19.52;;;12.80;99.90;;;;;;5090355;28;20012;-49
2022/11/13 04:39:36;;;;;;;44.35;18.92;;;12.80;99.90;;;;;;5078650;28;20024;-56
2022/11/13 04:44:46;;;;;;;42.53;19.45;;;12.80;99.90;;;;;;5090595;28;20031;-47
2022/11/13 04:47:12;;;;;;;45.83;20.17;;;12.80;99.90;;;;;;5090227;28;20024;-54
2022/11/13 04:49:38;;;;;;;45.25;19.75;;;12.80;99.90;;;;;;5104957;28;20721;-44
2022/11/13 04:52:03;;;;;;;47.72;20.00;;;12.80;99.90;;;;;;5110664;28;20435;-49
2022/11/13 04:54:29;;;;;;;42.22;19.55;;;12.80;99.90;;;;;;5109159;28;20384;-43
2022/11/13 04:56:55;;;;;;;43.33;18.70;;;12.80;99.90;;;;;;5095660;28;20024;-54
2022/11/13 04:59:20;;;;;;;44.97;20.40;;;12.80;99.90;;;;;;5094118;28;20111;-45
2022/11/13 05:01:46;;;;;;;44.75;19.48;;;12.80;99.90;;;;;;5087565;28;20337;-49
2022/11/13 05:04:13;;;;;;;41.88;19.42;;;12.80;99.90;;;;;;5089720;28;20028;-50
2022/11/13 05:06:39;;;;;;;44.33;18.83;;;12.70;99.90;;;;;;5099589;28;20031;-53
2022/11/13 05:09:05;;;;;;;48.67;20.73;;;12.70;99.90;;;;;;5110156;28;20465;-45
2022/11/13 05:11:30;;;;;;;45.53;18.92;;;12.70;99.90;;;;;;5110654;28;20077;-55
2022/11/13 05:13:56;;;;;;;44.65;18.20;;;12.70;99.90;;;;;;5110254;28;20046;-55
2022/11/13 05:16:22;;;;;;;46.42;18.50;;;12.60;99.90;;;;;;5113932;28;20145;-52
2022/11/13 05:18:47;;;;;;;41.22;16.95;;;12.60;99.90;;;;;;5112871;28;20016;-52
2022/11/13 05:21:13;;;;;;;52.60;18.75;;;12.60;99.90;;;;;;5113965;28;20047;-55
2022/11/13 05:23:39;;;;;;;38.42;16.35;;;12.60;99.90;;;;;;5113870;28;20498;-56
2022/11/13 05:26:08;;;;;;;44.03;18.05;;;12.60;99.90;;;;;;5108439;28;20027;-52
2022/11/13 05:28:34;;;;;;;44.17;18.45;;;12.60;99.90;;;;;;5114104;28;20028;-42
2022/11/13 05:31:07;;;;;;;44.97;18.92;;;12.60;99.90;;;;;;5113697;28;20089;-50
2022/11/13 05:33:33;;;;;;;42.45;17.40;;;12.60;99.90;;;;;;5113846;28;20032;-45
2022/11/13 05:36:07;;;;;;;44.13;17.88;;;12.60;99.90;;;;;;5106163;28;20109;-48
2022/11/13 05:38:33;;;;;;;43.15;18.58;;;12.60;99.90;;;;;;5092803;28;20108;-47
2022/11/13 05:41:28;;;;;;;46.80;18.52;;;12.60;99.90;;;;;;5093115;28;20048;-49
2022/11/13 05:43:54;;;;;;;42.67;16.90;;;12.60;99.90;;;;;;5088857;28;20028;-54
2022/11/13 05:46:20;;;;;;;44.20;19.30;;;12.60;99.90;;;;;;5092892;28;20500;-46
2022/11/13 05:48:50;;;;;;;47.53;18.27;;;12.60;99.90;;;;;;5100375;28;20028;-51
2022/11/13 05:51:22;;;;;;;49.28;17.38;;;12.50;99.90;;;;;;5113449;28;20055;-45
2022/11/13 05:53:48;;;;;;;44.95;17.17;;;12.50;99.90;;;;;;5113576;28;20119;-52
2022/11/13 05:56:16;;;;;;;64.80;17.45;;;12.50;99.90;;;;;;5097641;27;20033;-46
2022/11/13 05:58:43;;;;;;;56.92;18.58;;;12.50;99.90;;;;;;5082464;28;20393;-45
2022/11/13 06:01:14;;;;;;;86.38;18.05;;;12.50;99.90;;;;;;5090644;28;20099;-49
2022/11/13 06:03:41;;;;;;;60.33;15.88;;;12.50;99.90;;;;;;5088131;28;20028;-47
2022/11/13 06:06:08;;;;;;;66.45;16.92;;;12.40;99.90;;;;;;5082149;28;20366;-46
2022/11/13 06:08:34;;;;;;;45.63;15.32;;;12.40;99.90;;;;;;5092281;28;20412;-47
2022/11/13 06:11:02;;;;;;;64.47;15.23;;;12.40;99.90;;;;;;5086218;28;20111;-49
2022/11/13 06:13:28;;;;;;;71.07;15.95;;;12.40;99.90;;;;;;5088651;28;20048;-44
2022/11/13 06:15:58;;;;;;;39.67;14.70;;;12.30;99.90;;;;;;5088516;28;20054;-44
2022/11/13 06:18:24;;;;;;;45.88;15.48;;;12.30;99.90;;;;;;5090985;28;20047;-45
2022/11/13 06:20:50;;;;;;;38.92;15.40;;;12.30;99.90;;;;;;5091959;28;20424;-46
2022/11/13 06:23:15;;;;;;;42.97;15.82;;;12.30;99.90;;;;;;5091983;28;20017;-49
2022/11/13 06:25:41;;;;;;;57.30;15.27;;;12.30;99.90;;;;;;5090810;28;20024;-43
2022/11/13 06:28:07;;;;;;;62.50;14.63;;;12.30;99.90;;;;;;5091785;28;20035;-48
2022/11/13 06:30:33;;;;;;;35.47;13.90;;;12.20;99.90;;;;;;5091707;28;20032;-43
2022/11/13 06:32:58;;;;;;;52.03;15.38;;;12.20;99.90;;;;;;5092331;28;20455;-50
2022/11/13 06:35:24;;;;;;;44.80;14.52;;;12.20;99.90;;;;;;5092063;28;20457;-47
2022/11/13 06:37:50;;;;;;;41.55;13.68;;;12.30;99.90;;;;;;5092074;28;20050;-45
2022/11/13 06:40:15;;;;;;;38.47;12.75;;;12.20;99.90;;;;;;5092151;28;20020;-49
2022/11/13 06:42:41;;;;;;;52.58;14.02;;;12.20;99.90;;;;;;5091700;28;20021;-47
2022/11/13 06:45:07;;;;;;;53.38;13.25;;;12.20;99.90;;;;;;5091896;28;20032;-42
2022/11/13 06:47:33;;;;;;;47.15;13.90;;;12.20;99.90;;;;;;5091936;28;20035;-46
2022/11/13 06:49:58;;;;;;;55.70;13.65;;;12.10;99.90;;;;;;5109472;28;20035;-46
2022/11/13 06:52:24;;;;;;;45.65;14.43;;;12.10;99.90;;;;;;5112117;28;20110;-54
2022/11/13 06:54:50;;;;;;;39.63;12.95;;;12.10;99.90;;;;;;5107347;28;20027;-52
2022/11/13 06:57:15;;;;;;;38.92;12.10;;;12.10;99.90;;;;;;5092604;28;20028;-46
2022/11/13 06:59:42;;;;;;;32.00;11.13;;;12.00;99.90;;;;;;5073844;28;20042;-42
2022/11/13 07:02:09;;;;;;;28.63;10.82;;;12.00;99.90;;;;;;5090689;28;20016;-46
2022/11/13 07:04:35;;;;;;;26.75;10.32;;;12.00;99.90;;;;;;5112090;28;20028;-42
2022/11/13 07:07:02;;;;;;;30.02;10.00;;;12.00;99.90;;;;;;5110832;28;20065;-45
2022/11/13 07:09:28;;;;;;;24.38;10.05;;;11.90;99.90;;;;;;5111924;28;20523;-46
2022/11/13 07:11:54;;;;;;;25.73;9.82;;;11.90;99.90;;;;;;5111769;28;20027;-52
2022/11/13 07:14:20;;;;;;;20.98;9.23;;;11.90;99.90;;;;;;5111971;28;20024;-45
2022/11/13 07:16:45;;;;;;;25.52;9.38;;;11.80;99.90;;;;;;5110643;28;20032;-48
2022/11/13 07:19:11;;;;;;;24.52;9.38;;;11.80;99.90;;;;;;5111577;28;20127;-48
2022/11/13 07:21:37;;;;;;;22.50;9.13;;;11.80;99.90;;;;;;5111801;28;20050;-52
2022/11/13 07:24:02;;;;;;;18.52;8.25;;;11.80;99.90;;;;;;5111546;28;20336;-43
2022/11/13 07:26:28;;;;;;;19.77;8.93;;;11.80;99.90;;;;;;5101976;28;20024;-51
2022/11/13 07:28:54;;;;;;;21.27;8.40;;;11.80;99.90;;;;;;5111197;28;20038;-45
2022/11/13 07:31:20;;;;;;;20.10;8.80;;;11.70;99.90;;;;;;5101029;28;20040;-48
2022/11/13 07:33:48;;;;;;;20.42;7.70;;;11.70;99.90;;;;;;5081366;28;20027;-45
2022/11/13 07:36:13;;;;;;;23.67;8.82;;;11.70;99.90;;;;;;5081589;28;20097;-42
2022/11/13 07:38:39;;;;;;;23.60;8.63;;;11.70;99.90;;;;;;5094957;28;20086;-43
2022/11/13 07:41:05;;;;;;;17.70;8.00;;;11.70;99.90;;;;;;5110128;28;20066;-52
2022/11/13 07:43:30;;;;;;;17.38;8.30;;;11.60;99.90;;;;;;5111247;28;20019;-48
2022/11/13 07:46:00;;;;;;;29.15;8.75;;;11.60;99.90;;;;;;5111322;28;20098;-49
2022/11/13 07:48:26;;;;;;;;;;;11.50;99.90;;;;;;5111782;28;20099;-52
2022/11/13 07:50:52;;;;;;;17.42;8.02;;;11.60;99.90;;;;;;5111291;28;20006;-49
2022/11/13 07:53:19;;;;;;;19.85;7.95;;;11.60;99.90;;;;;;5111209;28;20159;-53
2022/11/13 07:55:46;;;;;;;16.33;8.68;;;11.50;99.90;;;;;;5106788;28;20035;-45
2022/11/13 07:58:12;;;;;;;18.42;8.63;;;11.60;99.90;;;;;;5111228;28;20073;-46
2022/11/13 08:00:38;;;;;;;16.38;8.50;;;11.50;99.90;;;;;;5111314;28;20027;-46
2022/11/13 08:03:10;;;;;;;18.00;8.20;;;11.50;99.90;;;;;;5111272;28;20027;-46
2022/11/13 08:05:36;;;;;;;32.33;8.52;;;11.60;99.90;;;;;;5107201;28;20489;-54
2022/11/13 08:08:02;;;;;;;17.13;9.02;;;11.60;99.90;;;;;;5089150;28;20070;-50
2022/11/13 08:10:28;;;;;;;17.92;8.05;;;11.60;99.90;;;;;;5091837;28;20043;-42
2022/11/13 08:13:04;;;;;;;15.10;7.63;;;11.60;99.90;;;;;;5091160;28;20027;-54
2022/11/13 08:15:31;;;;;;;15.70;8.15;;;11.60;99.90;;;;;;5111089;28;20107;-51
2022/11/13 08:17:58;;;;;;;20.00;8.27;;;11.60;99.90;;;;;;5110921;28;20438;-43
2022/11/13 08:20:25;;;;;;;15.10;8.10;;;11.60;99.90;;;;;;5110732;28;20047;-49
2022/11/13 08:22:51;;;;;;;16.13;8.07;;;11.60;99.90;;;;;;5111082;28;20134;-52
2022/11/13 08:25:17;;;;;;;14.65;7.45;;;11.60;99.90;;;;;;5111146;28;20106;-50
2022/11/13 08:27:43;;;;;;;19.63;7.65;;;11.60;99.90;;;;;;5082684;28;20055;-45
2022/11/13 08:30:09;;;;;;;14.55;7.68;;;11.60;99.90;;;;;;5111053;28;20477;-51
2022/11/13 08:32:34;;;;;;;15.45;8.15;;;11.70;99.90;;;;;;5111067;28;20028;-46
2022/11/13 08:35:00;;;;;;;11.70;7.00;;;11.70;99.90;;;;;;5110760;28;20042;-54
2022/11/13 08:37:26;;;;;;;17.75;7.75;;;11.70;99.90;;;;;;5108614;28;20024;-55
2022/11/13 08:39:51;;;;;;;19.48;8.23;;;11.60;99.90;;;;;;5110756;28;20028;-48
2022/11/13 08:42:17;;;;;;;18.42;8.05;;;11.60;99.90;;;;;;5110742;28;20023;-50
2022/11/13 08:44:43;;;;;;;19.10;8.10;;;11.60;99.90;;;;;;5082207;28;20374;-46
2022/11/13 08:47:08;;;;;;;15.90;7.78;;;11.60;99.90;;;;;;5110865;28;20020;-44
2022/11/13 08:49:34;;;;;;;15.70;8.13;;;11.70;99.90;;;;;;5113097;28;20456;-45
2022/11/13 08:51:59;;;;;;;19.73;8.93;;;11.60;99.90;;;;;;5086314;28;20026;-43
2022/11/13 08:54:25;;;;;;;17.50;7.93;;;11.60;99.90;;;;;;5096717;28;20097;-48
2022/11/13 08:56:51;;;;;;;19.63;8.73;;;11.60;99.90;;;;;;5094475;28;20038;-43
2022/11/13 08:59:17;;;;;;;26.10;8.57;;;11.70;99.90;;;;;;5094219;28;20020;-51
2022/11/13 09:01:42;;;;;;;19.77;8.25;;;11.70;99.90;;;;;;5093810;28;20027;-48
2022/11/13 09:04:08;;;;;;;18.73;8.48;;;11.70;99.90;;;;;;5094210;28;20020;-51
2022/11/13 09:06:33;;;;;;;19.15;8.40;;;11.70;99.90;;;;;;5084893;28;20032;-48
2022/11/13 09:08:59;;;;;;;22.50;10.23;;;11.80;99.90;;;;;;5093459;28;20017;-47
2022/11/13 09:11:26;;;;;;;25.70;9.05;;;11.80;99.90;;;;;;5093590;28;20385;-52
2022/11/13 09:13:53;;;;;;;19.58;9.80;;;11.90;99.90;;;;;;5094112;28;20088;-46
2022/11/13 09:16:19;;;;;;;25.27;10.30;;;12.00;99.90;;;;;;5094009;28;20050;-49
2022/11/13 09:18:48;;;;;;;19.67;9.63;;;12.00;99.90;;;;;;5093527;28;20020;-47
2022/11/13 09:21:14;;;;;;;16.63;9.07;;;12.10;99.90;;;;;;5093655;28;20042;-51
2022/11/13 09:23:39;;;;;;;19.30;9.38;;;12.20;99.90;;;;;;5093558;28;20035;-44
2022/11/13 09:26:05;;;;;;;18.95;8.88;;;12.30;99.90;;;;;;5093661;28;20372;-43
2022/11/13 09:28:31;;;;;;;16.95;9.77;;;12.30;99.90;;;;;;5093427;28;20024;-50
2022/11/13 09:30:56;;;;;;;18.58;9.82;;;12.40;99.90;;;;;;5093247;28;20463;-44
2022/11/13 09:33:22;;;;;;;19.52;8.73;;;12.50;99.90;;;;;;5093549;28;20076;-47
2022/11/13 09:35:48;;;;;;;18.55;9.52;;;12.60;99.90;;;;;;5092447;28;20546;-48
2022/11/13 09:38:14;;;;;;;19.48;8.98;;;12.70;99.90;;;;;;5093429;28;20024;-47
2022/11/13 09:41:01;;;;;;;16.40;9.10;;;12.70;99.90;;;;;;5093241;28;20061;-49
2022/11/13 09:44:08;;;;;;;17.13;9.15;;;12.80;99.90;;;;;;5088309;28;20119;-46
2022/11/13 09:47:01;;;;;;;14.00;8.65;;;12.90;99.90;;;;;;5086968;28;20051;-46
2022/11/13 09:49:31;;;;;;;14.88;8.93;;;13.00;99.90;;;;;;5092527;28;20028;-48
2022/11/13 09:52:01;;;;;;;14.75;8.68;;;13.10;99.90;;;;;;5092570;28;20012;-48
2022/11/13 09:54:27;;;;;;;15.43;8.52;;;13.20;99.90;;;;;;5089468;28;20032;-48
2022/11/13 09:57:05;;;;;;;17.27;9.05;;;13.40;99.90;;;;;;5086932;28;20050;-52
2022/11/13 09:59:54;;;;;;;15.27;10.02;;;13.40;99.90;;;;;;5093123;28;20043;-51
2022/11/13 10:02:22;;;;;;;;;;;13.40;99.90;;;;;;5093198;28;20079;-48
2022/11/13 10:05:03;;;;;;;14.77;9.75;;;13.50;99.90;;;;;;5093112;28;20384;-56
2022/11/13 10:08:05;;;;;;;13.05;8.57;;;13.50;99.90;;;;;;5089034;28;20032;-44
2022/11/13 10:11:00;;;;;;;15.90;9.68;;;13.60;99.90;;;;;;5088575;28;20054;-51
2022/11/13 10:13:40;;;;;;;14.88;9.63;;;13.70;99.90;;;;;;5086957;28;20039;-51
2022/11/13 10:16:29;;;;;;;17.52;9.50;;;13.80;99.90;;;;;;5092818;28;20092;-43
2022/11/13 10:19:13;;;;;;;13.57;9.68;;;13.90;99.90;;;;;;5070285;28;20058;-47
2022/11/13 10:21:45;;;;;;;14.50;9.68;;;13.90;99.90;;;;;;5091361;28;20044;-47
2022/11/13 10:24:41;;;;;;;13.15;9.75;;;14.10;99.90;;;;;;5091903;28;20503;-50
2022/11/13 10:27:09;;;;;;;16.15;10.00;;;14.30;99.90;;;;;;5086423;28;20168;-47
2022/11/13 10:29:36;;;;;;;15.05;10.65;;;14.60;99.90;;;;;;5091843;28;20024;-44
2022/11/13 10:32:15;;;;;;;15.75;10.45;;;15.00;99.90;;;;;;5091770;28;20032;-53
2022/11/13 10:35:02;;;;;;;12.98;9.07;;;15.40;99.90;;;;;;5090908;28;20129;-47
2022/11/13 10:37:55;;;;;;;14.73;9.52;;;15.50;99.90;;;;;;5085227;28;20032;-50
2022/11/13 10:40:30;;;;;;;14.27;9.88;;;15.40;99.90;;;;;;5091439;28;20024;-42
2022/11/13 10:43:14;;;;;;;12.50;9.10;;;15.40;99.90;;;;;;5091536;28;20024;-42
2022/11/13 10:45:51;;;;;;;14.15;9.05;;;15.70;99.90;;;;;;5091989;28;20040;-42
2022/11/13 10:48:35;;;;;;;15.23;9.43;;;16.10;99.90;;;;;;5084945;28;20028;-43
2022/11/13 10:51:04;;;;;;;14.70;9.27;;;16.60;99.90;;;;;;5112340;28;20110;-43
2022/11/13 10:53:39;;;;;;;13.65;9.88;;;16.80;99.90;;;;;;5111929;28;20094;-44
2022/11/13 10:56:35;;;;;;;12.35;9.85;;;16.80;99.90;;;;;;5112487;28;20027;-42
2022/11/13 10:59:12;;;;;;;14.63;10.45;;;16.30;99.90;;;;;;5112290;28;20035;-46
2022/11/13 11:01:39;;;;;;;15.38;10.35;;;16.20;99.90;;;;;;5111890;28;20048;-44
2022/11/13 11:04:10;;;;;;;13.90;9.60;;;16.20;99.90;;;;;;5077764;28;20036;-44
2022/11/13 11:06:38;;;;;;;13.95;10.00;;;16.50;99.90;;;;;;5089386;28;20035;-42
2022/11/13 11:09:22;;;;;;;13.45;9.27;;;16.50;99.90;;;;;;5091367;28;20028;-44
2022/11/13 11:12:22;;;;;;;14.23;9.25;;;16.40;99.90;;;;;;5084827;28;20043;-46
2022/11/13 11:14:59;;;;;;;11.30;8.57;;;16.70;99.90;;;;;;5088272;28;20055;-48
2022/11/13 11:17:33;;;;;;;13.63;9.35;;;16.80;99.90;;;;;;5090374;28;20022;-42
2022/11/13 11:20:20;;;;;;;13.75;8.40;;;16.80;99.90;;;;;;5083760;28;20025;-47
2022/11/13 11:22:51;;;;;;;11.45;8.52;;;17.00;99.90;;;;;;5088897;28;20493;-46
2022/11/13 11:25:32;;;;;;;15.25;9.55;;;17.00;99.90;;;;;;5091263;28;20032;-47
2022/11/13 11:28:19;;;;;;;12.32;9.90;;;17.10;99.90;;;;;;5089893;28;20102;-52
2022/11/13 11:31:06;;;;;;;15.27;9.98;;;17.00;99.90;;;;;;5090785;28;20384;-52
2022/11/13 11:34:07;;;;;;;16.00;10.68;;;16.80;99.90;;;;;;5082346;28;20042;-44
2022/11/13 11:36:57;;;;;;;13.80;10.23;;;16.80;99.90;;;;;;5090512;28;20024;-48
2022/11/13 11:39:34;;;;;;;11.95;8.43;;;17.10;99.90;;;;;;5083101;28;20044;-51
2022/11/13 11:42:11;;;;;;;11.00;6.35;;;17.80;99.90;;;;;;5082042;28;20103;-47
2022/11/13 11:44:54;;;;;;;10.45;6.57;;;18.80;99.90;;;;;;5082001;28;20561;-47
2022/11/13 11:47:20;;;;;;;11.65;6.30;;;19.10;99.90;;;;;;5091017;28;20194;-52
2022/11/13 11:49:45;;;;;;;8.10;5.65;;;19.90;99.90;;;;;;5106773;28;20391;-46
2022/11/13 11:52:29;;;;;;;12.55;7.10;;;20.30;99.90;;;;;;5111344;28;20400;-45
2022/11/13 11:55:04;;;;;;;10.05;6.68;;;20.10;99.90;;;;;;5109243;28;20024;-50
2022/11/13 11:57:42;;;;;;;9.27;6.70;;;19.00;99.90;;;;;;5085069;28;20488;-51
2022/11/13 12:00:15;;;;;;;10.05;6.07;;;18.80;99.90;;;;;;5089240;28;20031;-46
2022/11/13 12:03:18;;;;;;;8.30;5.40;;;18.60;99.90;;;;;;5110611;28;20027;-52
2022/11/13 12:06:02;;;;;;;8.48;5.00;;;18.30;99.90;;;;;;5084453;28;20091;-48
2022/11/13 12:08:49;;;;;;;9.23;5.47;;;17.90;99.90;;;;;;5110575;28;20034;-51
2022/11/13 12:11:28;;;;;;;9.52;5.20;;;17.60;99.90;;;;;;5102044;28;20029;-50
2022/11/13 12:14:14;;;;;;;8.82;4.63;;;17.90;99.90;;;;;;5088985;28;20024;-45
2022/11/13 12:16:44;;;;;;;9.70;5.40;;;18.10;99.90;;;;;;5078501;28;20056;-55
2022/11/13 12:19:13;;;;;;;9.50;4.78;;;17.50;99.90;;;;;;5087952;28;20116;-44
2022/11/13 12:22:02;;;;;;;7.73;5.03;;;17.70;99.90;;;;;;5089800;28;20123;-49
2022/11/13 12:24:40;;;;;;;8.18;4.35;;;17.60;99.90;;;;;;5089984;28;20480;-47
2022/11/13 12:27:31;;;;;;;6.57;4.70;;;18.00;99.90;;;;;;5092342;28;20028;-45
2022/11/13 12:30:18;;;;;;;8.02;4.18;;;17.70;99.90;;;;;;5094645;28;20074;-43
2022/11/13 12:33:22;;;;;;;8.80;4.50;;;18.00;99.90;;;;;;5089960;28;20028;-47
2022/11/13 12:35:52;;;;;;;7.38;3.90;;;17.70;99.90;;;;;;5093523;28;20111;-43
2022/11/13 12:38:31;;;;;;;6.03;3.78;;;17.60;99.90;;;;;;5091834;28;20051;-53
2022/11/13 12:41:11;;;;;;;6.00;4.10;;;17.10;99.90;;;;;;5087657;28;20115;-48
2022/11/13 12:44:00;;;;;;;8.57;4.13;;;17.20;99.90;;;;;;5095678;28;20051;-54
2022/11/13 12:46:37;;;;;;;9.27;4.30;;;17.10;99.90;;;;;;5094240;28;20020;-52
2022/11/13 12:49:30;;;;;;;7.38;3.92;;;17.20;99.90;;;;;;5096929;28;20036;-50
2022/11/13 12:52:02;;;;;;;9.10;3.83;;;17.30;99.90;;;;;;5097292;28;20112;-47